createdAt,value
2018-08-11T00:01:39.518Z,17.28
2018-08-11T00:04:09.156Z,17.29
2018-08-11T00:06:38.622Z,17.29
2018-08-11T00:09:09.616Z,17.31
2018-08-11T00:11:39.201Z,17.34
2018-08-11T00:14:08.596Z,17.30
2018-08-11T00:16:38.133Z,17.30
2018-08-11T00:19:07.581Z,17.29
2018-08-11T00:21:37.000Z,17.31
2018-08-11T00:24:06.694Z,17.26
2018-08-11T00:26:36.139Z,17.28
2018-08-11T00:29:05.624Z,17.19
2018-08-11T00:31:35.027Z,17.22
2018-08-11T00:34:04.544Z,17.25
2018-08-11T00:36:34.521Z,17.08
2018-08-11T00:39:06.241Z,17.08
2018-08-11T00:41:36.840Z,17.01
2018-08-11T00:44:06.936Z,17.09
2018-08-11T00:46:36.430Z,17.05
2018-08-11T00:49:06.634Z,17.04
2018-08-11T00:51:36.068Z,17.09
2018-08-11T00:54:05.929Z,17.08
2018-08-11T00:56:35.380Z,17.08
2018-08-11T00:59:04.811Z,17.08
2018-08-11T01:01:34.580Z,17.06
2018-08-11T01:04:04.112Z,17.08
2018-08-11T01:06:33.597Z,17.11
2018-08-11T01:09:03.676Z,17.09
2018-08-11T01:11:33.116Z,17.08
2018-08-11T01:14:02.611Z,17.10
2018-08-11T01:16:32.161Z,17.17
2018-08-11T01:19:01.645Z,17.14
2018-08-11T01:21:31.095Z,17.23
2018-08-11T01:24:00.560Z,17.21
2018-08-11T01:26:30.046Z,17.21
2018-08-11T01:28:59.465Z,17.26
2018-08-11T01:31:28.872Z,17.09
2018-08-11T01:33:59.021Z,17.28
2018-08-11T01:36:28.688Z,17.28
2018-08-11T01:38:58.810Z,17.30
2018-08-11T01:41:28.740Z,17.29
2018-08-11T01:43:58.338Z,17.33
2018-08-11T01:46:28.201Z,17.34
2018-08-11T01:48:57.627Z,17.34
2018-08-11T01:51:27.192Z,17.39
2018-08-11T01:53:56.626Z,17.40
2018-08-11T01:56:26.345Z,17.42
2018-08-11T01:59:00.303Z,17.38
2018-08-11T02:01:29.704Z,17.40
2018-08-11T02:03:59.195Z,17.42
2018-08-11T02:06:28.680Z,17.37
2018-08-11T02:08:58.113Z,17.34
2018-08-11T02:11:28.400Z,17.35
2018-08-11T02:13:59.985Z,17.38
2018-08-11T02:16:29.457Z,17.37
2018-08-11T02:18:58.960Z,17.37
2018-08-11T02:21:28.464Z,17.35
2018-08-11T02:23:58.961Z,17.35
2018-08-11T02:26:29.055Z,17.35
2018-08-11T02:28:58.489Z,17.33
2018-08-11T02:31:27.954Z,17.35
2018-08-11T02:33:58.833Z,17.35
2018-08-11T02:36:28.989Z,17.35
2018-08-11T02:38:58.456Z,17.41
2018-08-11T02:41:28.473Z,17.43
2018-08-11T02:43:58.623Z,17.48
2018-08-11T02:46:28.038Z,17.33
2018-08-11T02:48:57.642Z,17.52
2018-08-11T02:51:27.037Z,17.58
2018-08-11T02:53:56.505Z,17.51
2018-08-11T02:56:25.883Z,17.53
2018-08-11T02:58:56.288Z,17.56
2018-08-11T03:01:25.716Z,17.62
2018-08-11T03:03:55.161Z,17.69
2018-08-11T03:06:24.709Z,17.72
2018-08-11T03:08:54.053Z,17.84
2018-08-11T03:11:23.570Z,17.79
2018-08-11T03:13:52.960Z,17.73
2018-08-11T03:16:22.404Z,17.72
2018-08-11T03:18:52.106Z,17.69
2018-08-11T03:21:21.523Z,17.67
2018-08-11T03:23:51.004Z,17.64
2018-08-11T03:26:20.482Z,17.58
2018-08-11T03:28:49.905Z,17.53
2018-08-11T03:31:19.373Z,17.48
2018-08-11T03:33:48.805Z,17.51
2018-08-11T03:36:18.303Z,17.45
2018-08-11T03:38:47.777Z,17.45
2018-08-11T03:41:17.289Z,17.47
2018-08-11T03:43:46.806Z,17.48
2018-08-11T03:46:16.544Z,17.49
2018-08-11T03:48:45.939Z,17.49
2018-08-11T03:51:15.907Z,17.48
2018-08-11T03:53:45.411Z,17.47
2018-08-11T03:56:14.920Z,17.51
2018-08-11T03:58:44.581Z,17.54
2018-08-11T04:01:14.336Z,17.44
2018-08-11T04:03:43.928Z,17.39
2018-08-11T04:06:13.415Z,17.33
2018-08-11T04:08:42.929Z,17.32
2018-08-11T04:11:12.622Z,17.27
2018-08-11T04:13:42.030Z,17.21
2018-08-11T04:16:11.472Z,17.17
2018-08-11T04:18:40.941Z,17.04
2018-08-11T04:21:10.420Z,17.01
2018-08-11T04:23:39.843Z,16.94
2018-08-11T04:26:09.310Z,16.90
2018-08-11T04:28:39.788Z,16.86
2018-08-11T04:31:09.262Z,16.83
2018-08-11T04:33:38.690Z,16.74
2018-08-11T04:36:09.290Z,16.66
2018-08-11T04:38:38.722Z,16.58
2018-08-11T04:41:08.196Z,16.53
2018-08-11T04:43:37.673Z,16.56
2018-08-11T04:46:07.118Z,16.61
2018-08-11T04:48:36.552Z,16.61
2018-08-11T04:51:06.086Z,16.65
2018-08-11T04:53:36.309Z,16.70
2018-08-11T04:56:06.052Z,16.71
2018-08-11T04:58:36.725Z,16.74
2018-08-11T05:01:06.280Z,16.80
2018-08-11T05:03:36.049Z,16.76
2018-08-11T05:06:05.570Z,16.82
2018-08-11T05:08:35.525Z,16.86
2018-08-11T05:11:04.952Z,16.85
2018-08-11T05:13:34.356Z,16.96
2018-08-11T05:16:04.049Z,16.98
2018-08-11T05:18:34.457Z,17.03
2018-08-11T05:21:03.896Z,17.04
2018-08-11T05:23:33.297Z,17.09
2018-08-11T05:26:02.704Z,17.10
2018-08-11T05:28:32.098Z,17.13
2018-08-11T05:31:01.521Z,17.11
2018-08-11T05:33:30.958Z,17.15
2018-08-11T05:36:00.376Z,17.10
2018-08-11T05:38:29.834Z,17.19
2018-08-11T05:40:59.665Z,17.19
2018-08-11T05:43:29.229Z,17.14
2018-08-11T05:45:58.737Z,17.17
2018-08-11T05:48:28.428Z,17.28
2018-08-11T05:50:58.189Z,17.31
2018-08-11T05:53:27.761Z,17.29
2018-08-11T05:55:57.176Z,17.33
2018-08-11T05:58:26.553Z,17.43
2018-08-11T06:00:56.029Z,17.40
2018-08-11T06:03:25.626Z,17.43
2018-08-11T06:05:55.045Z,17.47
2018-08-11T06:08:24.551Z,17.50
2018-08-11T06:10:53.976Z,17.59
2018-08-11T06:13:23.428Z,17.79
2018-08-11T06:15:52.829Z,17.76
2018-08-11T06:18:22.363Z,17.83
2018-08-11T06:20:51.768Z,17.88
2018-08-11T06:23:21.164Z,17.95
2018-08-11T06:25:50.613Z,17.95
2018-08-11T06:28:20.053Z,17.99
2018-08-11T06:30:49.555Z,17.98
2018-08-11T06:33:18.942Z,18.14
2018-08-11T06:35:48.439Z,18.22
2018-08-11T06:38:17.920Z,18.21
2018-08-11T06:40:47.377Z,18.36
2018-08-11T06:43:16.963Z,18.56
2018-08-11T06:45:46.369Z,18.67
2018-08-11T06:48:18.149Z,18.74
2018-08-11T06:50:47.596Z,18.68
2018-08-11T06:53:17.024Z,18.74
2018-08-11T06:55:50.181Z,18.86
2018-08-11T06:58:19.569Z,18.91
2018-08-11T07:00:49.000Z,19.06
2018-08-11T07:03:18.402Z,19.17
2018-08-11T07:05:47.828Z,19.30
2018-08-11T07:08:17.361Z,19.45
2018-08-11T07:10:46.801Z,19.42
2018-08-11T07:13:16.272Z,19.61
2018-08-11T07:15:45.759Z,19.72
2018-08-11T07:18:15.227Z,19.77
2018-08-11T07:20:44.675Z,19.80
2018-08-11T07:23:14.155Z,19.80
2018-08-11T07:25:43.544Z,19.86
2018-08-11T07:28:14.021Z,19.98
2018-08-11T07:30:43.763Z,19.87
2018-08-11T07:33:13.425Z,19.90
2018-08-11T07:35:42.850Z,19.73
2018-08-11T07:38:12.355Z,19.69
2018-08-11T07:40:42.418Z,19.52
2018-08-11T07:43:12.883Z,19.50
2018-08-11T07:45:42.448Z,19.55
2018-08-11T07:48:11.880Z,19.71
2018-08-11T07:50:41.501Z,19.58
2018-08-11T07:53:10.924Z,19.72
2018-08-11T07:55:40.704Z,19.83
2018-08-11T07:58:10.143Z,19.67
2018-08-11T08:00:39.521Z,19.55
2018-08-11T08:03:09.028Z,19.63
2018-08-11T08:05:38.498Z,19.59
2018-08-11T08:08:07.947Z,19.53
2018-08-11T08:10:37.604Z,19.31
2018-08-11T08:13:07.179Z,19.35
2018-08-11T08:15:36.667Z,19.44
2018-08-11T08:18:06.616Z,19.47
2018-08-11T08:20:36.368Z,19.67
2018-08-11T08:23:05.953Z,19.50
2018-08-11T08:25:35.546Z,19.66
2018-08-11T08:28:05.002Z,19.82
2018-08-11T08:30:34.490Z,19.87
2018-08-11T08:33:04.036Z,19.86
2018-08-11T08:35:33.457Z,19.89
2018-08-11T08:38:04.152Z,20.03
2018-08-11T08:40:33.593Z,20.17
2018-08-11T08:43:03.392Z,20.03
2018-08-11T08:45:32.791Z,19.94
2018-08-11T08:48:02.186Z,19.90
2018-08-11T08:50:31.668Z,20.08
2018-08-11T08:53:01.127Z,20.33
2018-08-11T08:55:30.561Z,20.42
2018-08-11T08:57:59.978Z,20.01
2018-08-11T09:00:29.469Z,20.49
2018-08-11T09:02:58.912Z,20.67
2018-08-11T09:05:29.160Z,20.85
2018-08-11T09:07:58.559Z,20.97
2018-08-11T09:10:28.005Z,21.04
2018-08-11T09:12:57.465Z,21.12
2018-08-11T09:15:26.879Z,21.06
2018-08-11T09:17:56.275Z,21.40
2018-08-11T09:20:26.133Z,21.47
2018-08-11T09:22:55.613Z,21.59
2018-08-11T09:25:26.516Z,21.72
2018-08-11T09:27:56.003Z,21.71
2018-08-11T09:30:25.401Z,21.83
2018-08-11T09:32:54.764Z,21.75
2018-08-11T09:35:24.573Z,21.34
2018-08-11T09:37:54.023Z,21.38
2018-08-11T09:40:23.432Z,21.54
2018-08-11T09:42:52.912Z,21.38
2018-08-11T09:45:22.674Z,21.06
2018-08-11T09:47:52.092Z,21.39
2018-08-11T09:50:21.470Z,21.53
2018-08-11T09:52:50.897Z,21.41
2018-08-11T09:55:20.330Z,21.37
2018-08-11T09:57:49.754Z,21.65
2018-08-11T10:02:26.697Z,21.84
2018-08-11T10:04:56.104Z,22.06
2018-08-11T10:07:26.543Z,22.14
2018-08-11T10:09:56.046Z,22.19
2018-08-11T10:12:25.581Z,22.39
2018-08-11T10:14:55.061Z,22.34
2018-08-11T10:17:24.904Z,22.67
2018-08-11T10:19:54.341Z,22.93
2018-08-11T10:22:24.156Z,22.98
2018-08-11T10:24:53.741Z,22.92
2018-08-11T10:27:23.306Z,22.93
2018-08-11T10:29:52.806Z,22.92
2018-08-11T10:32:22.263Z,23.00
2018-08-11T10:34:51.975Z,22.99
2018-08-11T10:37:21.380Z,23.08
2018-08-11T10:39:50.893Z,23.46
2018-08-11T10:42:20.584Z,23.26
2018-08-11T10:44:50.012Z,23.33
2018-08-11T10:47:19.588Z,23.39
2018-08-11T10:49:49.058Z,23.33
2018-08-11T10:52:18.824Z,23.52
2018-08-11T10:54:48.365Z,23.48
2018-08-11T10:57:17.918Z,23.59
2018-08-11T10:59:47.403Z,22.88
2018-08-11T11:02:16.881Z,23.85
2018-08-11T11:04:46.482Z,23.51
2018-08-11T11:07:15.940Z,23.54
2018-08-11T11:09:45.458Z,23.55
2018-08-11T11:12:14.843Z,23.86
2018-08-11T11:14:44.261Z,23.83
2018-08-11T11:17:13.664Z,23.92
2018-08-11T11:19:43.048Z,24.21
2018-08-11T11:22:12.463Z,24.30
2018-08-11T11:24:42.214Z,24.46
2018-08-11T11:27:12.049Z,24.48
2018-08-11T11:29:41.435Z,24.41
2018-08-11T11:32:10.835Z,24.69
2018-08-11T11:34:40.242Z,25.10
2018-08-11T11:37:09.751Z,25.04
2018-08-11T11:39:39.388Z,24.93
2018-08-11T11:42:08.859Z,24.86
2018-08-11T11:44:38.352Z,24.65
2018-08-11T11:47:07.787Z,24.93
2018-08-11T11:49:37.293Z,24.71
2018-08-11T11:52:06.789Z,25.02
2018-08-11T11:54:36.256Z,25.21
2018-08-11T11:57:06.197Z,24.99
2018-08-11T11:59:35.626Z,25.01
2018-08-11T12:02:05.187Z,24.92
2018-08-11T12:04:34.858Z,25.11
2018-08-11T12:07:06.956Z,25.17
2018-08-11T12:09:36.554Z,24.99
2018-08-11T12:12:06.445Z,24.80
2018-08-11T12:14:36.216Z,24.78
2018-08-11T12:17:05.673Z,25.00
2018-08-11T12:19:35.148Z,25.44
2018-08-11T12:22:05.164Z,25.52
2018-08-11T12:24:34.609Z,25.60
2018-08-11T12:27:04.091Z,25.48
2018-08-11T12:29:33.560Z,25.57
2018-08-11T12:32:03.043Z,25.57
2018-08-11T12:34:32.488Z,25.50
2018-08-11T12:37:02.083Z,25.52
2018-08-11T12:39:31.588Z,25.16
2018-08-11T12:42:01.012Z,25.44
2018-08-11T12:44:30.490Z,25.52
2018-08-11T12:47:00.721Z,25.71
2018-08-11T12:49:30.218Z,25.89
2018-08-11T12:52:00.680Z,25.78
2018-08-11T12:54:30.353Z,25.64
2018-08-11T12:56:59.861Z,25.55
2018-08-11T12:59:29.395Z,25.65
2018-08-11T13:01:58.954Z,25.47
2018-08-11T13:04:28.375Z,25.31
2018-08-11T13:06:57.874Z,25.15
2018-08-11T13:09:27.971Z,25.28
2018-08-11T13:11:57.389Z,25.30
2018-08-11T13:14:26.892Z,25.29
2018-08-11T13:16:56.270Z,25.26
2018-08-11T13:19:25.663Z,25.41
2018-08-11T13:21:55.057Z,25.51
2018-08-11T13:24:24.463Z,25.67
2018-08-11T13:26:53.898Z,25.87
2018-08-11T13:29:23.319Z,25.99
2018-08-11T13:31:52.737Z,26.28
2018-08-11T13:34:22.521Z,26.32
2018-08-11T13:36:51.957Z,25.84
2018-08-11T13:39:21.471Z,26.01
2018-08-11T13:41:50.970Z,25.98
2018-08-11T13:44:20.796Z,26.17
2018-08-11T13:46:50.227Z,26.28
2018-08-11T13:49:20.021Z,26.39
2018-08-11T13:51:49.560Z,26.31
2018-08-11T13:54:19.003Z,26.21
2018-08-11T13:56:48.577Z,26.55
2018-08-11T13:59:19.781Z,26.51
2018-08-11T14:01:49.286Z,26.21
2018-08-11T14:04:18.713Z,26.26
2018-08-11T14:06:48.699Z,24.74
2018-08-11T14:09:18.204Z,26.36
2018-08-11T14:11:47.612Z,26.67
2018-08-11T14:14:17.033Z,26.39
2018-08-11T14:16:46.535Z,26.42
2018-08-11T14:19:15.965Z,26.38
2018-08-11T14:21:45.541Z,26.49
2018-08-11T14:24:14.979Z,26.85
2018-08-11T14:26:44.469Z,26.56
2018-08-11T14:29:13.928Z,26.42
2018-08-11T14:31:43.328Z,26.46
2018-08-11T14:34:12.833Z,26.46
2018-08-11T14:36:42.637Z,26.53
2018-08-11T14:39:12.171Z,26.64
2018-08-11T14:41:41.728Z,26.78
2018-08-11T14:44:11.569Z,26.70
2018-08-11T14:46:41.032Z,26.89
2018-08-11T14:49:10.483Z,27.05
2018-08-11T14:51:39.952Z,26.95
2018-08-11T14:54:09.427Z,27.02
2018-08-11T14:56:38.837Z,27.02
2018-08-11T14:59:08.317Z,27.08
2018-08-11T15:01:37.785Z,26.81
2018-08-11T15:04:07.201Z,26.66
2018-08-11T15:06:36.631Z,26.57
2018-08-11T15:09:08.269Z,26.50
2018-08-11T15:11:37.690Z,26.41
2018-08-11T15:14:07.316Z,26.36
2018-08-11T15:16:36.801Z,26.41
2018-08-11T15:19:06.218Z,26.38
2018-08-11T15:21:35.624Z,26.40
2018-08-11T15:24:05.040Z,26.33
2018-08-11T15:26:34.527Z,26.43
2018-08-11T15:29:04.181Z,26.50
2018-08-11T15:31:33.987Z,26.65
2018-08-11T15:34:03.452Z,26.72
2018-08-11T15:36:32.898Z,26.64
2018-08-11T15:39:02.607Z,26.64
2018-08-11T15:41:32.186Z,26.53
2018-08-11T15:44:01.647Z,26.55
2018-08-11T15:46:31.057Z,26.53
2018-08-11T15:49:00.567Z,26.43
2018-08-11T15:51:30.176Z,26.45
2018-08-11T15:53:59.685Z,26.46
2018-08-11T15:56:29.827Z,26.49
2018-08-11T15:58:59.274Z,26.44
2018-08-11T16:01:28.886Z,26.48
2018-08-11T16:03:58.366Z,26.42
2018-08-11T16:06:27.814Z,26.44
2018-08-11T16:08:57.444Z,26.52
2018-08-11T16:11:27.940Z,26.57
2018-08-11T16:13:58.969Z,26.45
2018-08-11T16:16:28.531Z,26.47
2018-08-11T16:18:58.348Z,26.47
2018-08-11T16:21:27.812Z,26.44
2018-08-11T16:23:57.241Z,26.40
2018-08-11T16:26:26.636Z,26.47
2018-08-11T16:28:56.079Z,26.40
2018-08-11T16:31:25.732Z,26.38
2018-08-11T16:33:55.286Z,26.42
2018-08-11T16:36:24.744Z,26.46
2018-08-11T16:38:54.275Z,26.45
2018-08-11T16:41:23.675Z,25.74
2018-08-11T16:43:53.118Z,26.39
2018-08-11T16:46:22.523Z,26.32
2018-08-11T16:48:51.901Z,26.27
2018-08-11T16:51:21.399Z,26.21
2018-08-11T16:53:50.843Z,26.28
2018-08-11T16:56:20.412Z,26.33
2018-08-11T16:58:49.838Z,26.34
2018-08-11T17:01:19.206Z,26.32
2018-08-11T17:03:48.601Z,26.30
2018-08-11T17:06:18.067Z,26.31
2018-08-11T17:08:47.521Z,26.39
2018-08-11T17:11:17.752Z,26.33
2018-08-11T17:13:48.860Z,26.40
2018-08-11T17:16:18.347Z,26.29
2018-08-11T17:18:47.931Z,25.57
2018-08-11T17:21:17.313Z,26.29
2018-08-11T17:23:46.837Z,26.21
2018-08-11T17:26:16.241Z,26.17
2018-08-11T17:28:45.673Z,26.16
2018-08-11T17:31:15.122Z,26.07
2018-08-11T17:33:44.696Z,25.96
2018-08-11T17:36:14.154Z,25.86
2018-08-11T17:38:43.659Z,25.85
2018-08-11T17:41:13.117Z,25.83
2018-08-11T17:43:42.564Z,25.77
2018-08-11T17:46:12.071Z,25.74
2018-08-11T17:48:41.465Z,25.78
2018-08-11T17:51:10.929Z,25.76
2018-08-11T17:53:40.315Z,25.75
2018-08-11T17:56:09.880Z,22.40
2018-08-11T17:58:39.232Z,25.68
2018-08-11T18:01:09.160Z,25.57
2018-08-11T18:03:38.612Z,25.59
2018-08-11T18:06:08.058Z,25.47
2018-08-11T18:08:37.588Z,25.37
2018-08-11T18:11:07.038Z,25.31
2018-08-11T18:13:36.914Z,25.19
2018-08-11T18:16:06.592Z,25.07
2018-08-11T18:18:36.117Z,24.92
2018-08-11T18:21:05.562Z,24.80
2018-08-11T18:23:35.053Z,24.69
2018-08-11T18:26:04.512Z,24.55
2018-08-11T18:28:33.888Z,24.43
2018-08-11T18:31:03.340Z,24.32
2018-08-11T18:33:32.810Z,24.21
2018-08-11T18:36:02.414Z,24.14
2018-08-11T18:38:31.982Z,24.14
2018-08-11T18:41:01.405Z,24.04
2018-08-11T18:43:31.009Z,23.98
2018-08-11T18:46:00.669Z,23.91
2018-08-11T18:48:30.246Z,23.80
2018-08-11T18:50:59.654Z,23.73
2018-08-11T18:53:29.164Z,23.67
2018-08-11T18:55:58.605Z,23.59
2018-08-11T18:58:29.082Z,23.54
2018-08-11T19:00:58.673Z,23.42
2018-08-11T19:03:28.404Z,23.35
2018-08-11T19:05:57.812Z,23.28
2018-08-11T19:08:27.292Z,23.24
2018-08-11T19:10:57.024Z,23.19
2018-08-11T19:13:26.777Z,23.16
2018-08-11T19:15:56.630Z,23.10
2018-08-11T19:18:26.424Z,23.05
2018-08-11T19:20:55.885Z,23.03
2018-08-11T19:23:25.413Z,23.03
2018-08-11T19:25:54.985Z,23.00
2018-08-11T19:28:24.539Z,22.97
2018-08-11T19:30:53.946Z,22.92
2018-08-11T19:33:23.491Z,22.87
2018-08-11T19:35:53.118Z,22.84
2018-08-11T19:38:22.522Z,22.79
2018-08-11T19:40:51.989Z,22.70
2018-08-11T19:43:21.457Z,22.73
2018-08-11T19:45:50.899Z,22.67
2018-08-11T19:48:20.392Z,22.66
2018-08-11T19:50:49.960Z,22.60
2018-08-11T19:53:19.752Z,22.54
2018-08-11T19:55:49.375Z,22.48
2018-08-11T19:58:20.028Z,22.45
2018-08-11T20:00:49.913Z,22.44
2018-08-11T20:03:21.162Z,22.45
2018-08-11T20:05:50.569Z,22.45
2018-08-11T20:08:20.077Z,22.42
2018-08-11T20:10:49.648Z,22.43
2018-08-11T20:13:19.122Z,22.36
2018-08-11T20:15:49.033Z,22.40
2018-08-11T20:18:18.523Z,22.37
2018-08-11T20:20:48.046Z,22.29
2018-08-11T20:23:17.567Z,22.24
2018-08-11T20:25:47.190Z,22.16
2018-08-11T20:28:16.653Z,22.12
2018-08-11T20:30:46.091Z,22.12
2018-08-11T20:33:15.706Z,22.10
2018-08-11T20:35:45.093Z,22.05
2018-08-11T20:38:14.577Z,21.98
2018-08-11T20:40:45.030Z,21.75
2018-08-11T20:43:14.459Z,21.93
2018-08-11T20:45:43.987Z,21.84
2018-08-11T20:48:13.476Z,21.83
2018-08-11T20:50:42.954Z,21.82
2018-08-11T20:53:12.509Z,21.81
2018-08-11T20:55:41.981Z,21.79
2018-08-11T20:58:11.397Z,21.75
2018-08-11T21:00:40.810Z,21.75
2018-08-11T21:03:11.532Z,21.73
2018-08-11T21:05:40.953Z,21.67
2018-08-11T21:08:10.473Z,21.66
2018-08-11T21:10:40.094Z,21.59
2018-08-11T21:13:09.508Z,21.57
2018-08-11T21:15:38.919Z,21.56
2018-08-11T21:18:08.332Z,21.55
2018-08-11T21:20:38.152Z,21.56
2018-08-11T21:23:08.035Z,21.54
2018-08-11T21:25:37.417Z,21.53
2018-08-11T21:28:06.872Z,21.52
2018-08-11T21:30:36.658Z,21.51
2018-08-11T21:33:06.788Z,21.52
2018-08-11T21:35:36.328Z,21.54
2018-08-11T21:38:06.311Z,21.53
2018-08-11T21:40:35.901Z,21.53
2018-08-11T21:43:05.349Z,21.53
2018-08-11T21:45:34.838Z,21.59
2018-08-11T21:48:04.347Z,21.54
2018-08-11T21:50:33.724Z,21.53
2018-08-11T21:53:03.254Z,21.51
2018-08-11T21:55:33.213Z,21.55
2018-08-11T21:58:02.984Z,21.57
2018-08-11T22:00:34.977Z,18.46
2018-08-11T22:03:05.276Z,21.56
2018-08-11T22:05:35.192Z,21.48
2018-08-11T22:08:04.678Z,21.38
2018-08-11T22:10:34.468Z,21.38
2018-08-11T22:13:04.772Z,21.37
2018-08-11T22:15:34.196Z,21.37
2018-08-11T22:18:04.412Z,21.31
2018-08-11T22:20:33.969Z,21.22
2018-08-11T22:23:03.498Z,21.13
2018-08-11T22:25:32.911Z,21.08
2018-08-11T22:28:02.353Z,21.04
2018-08-11T22:30:31.798Z,21.00
2018-08-11T22:33:01.256Z,21.01
2018-08-11T22:35:30.694Z,21.01
2018-08-11T22:38:00.203Z,20.98
2018-08-11T22:40:29.637Z,20.95
2018-08-11T22:42:59.319Z,20.96
2018-08-11T22:45:28.755Z,20.86
2018-08-11T22:47:58.202Z,20.74
2018-08-11T22:50:27.598Z,20.64
2018-08-11T22:52:57.531Z,20.63
2018-08-11T22:55:27.069Z,20.62
2018-08-11T22:57:56.858Z,20.10
2018-08-11T23:00:26.289Z,20.68
2018-08-11T23:02:56.116Z,20.68
2018-08-11T23:05:25.551Z,20.67
2018-08-11T23:07:55.037Z,20.57
2018-08-11T23:10:24.490Z,20.49
2018-08-11T23:12:54.204Z,20.45
2018-08-11T23:15:23.774Z,20.38
2018-08-11T23:17:53.262Z,20.29
2018-08-11T23:20:23.318Z,20.26
2018-08-11T23:22:52.777Z,20.23
2018-08-11T23:25:22.535Z,20.51
2018-08-11T23:27:52.271Z,20.55
2018-08-11T23:30:23.867Z,20.55
2018-08-11T23:32:53.376Z,20.57
2018-08-11T23:35:22.892Z,20.57
2018-08-11T23:37:52.317Z,20.48
2018-08-11T23:40:21.800Z,20.48
2018-08-11T23:42:51.682Z,20.44
2018-08-11T23:45:21.090Z,20.45
2018-08-11T23:47:50.661Z,20.45
2018-08-11T23:50:20.049Z,20.41
2018-08-11T23:52:49.470Z,20.38
2018-08-11T23:55:19.209Z,20.43
2018-08-11T23:57:48.719Z,20.46
